createdAt,value
2019-02-11T00:00:53.161Z,3.84
2019-02-11T00:01:53.170Z,3.78
2019-02-11T00:02:53.133Z,3.80
2019-02-11T00:03:59.397Z,3.80
2019-02-11T00:04:54.106Z,3.68
2019-02-11T00:05:53.100Z,3.69
2019-02-11T00:06:53.115Z,3.83
2019-02-11T00:07:53.084Z,3.65
2019-02-11T00:08:53.085Z,3.72
2019-02-11T00:09:53.053Z,3.57
2019-02-11T00:10:53.054Z,3.57
2019-02-11T00:11:53.048Z,3.55
2019-02-11T00:12:53.068Z,3.50
2019-02-11T00:13:53.041Z,3.52
2019-02-11T00:14:53.050Z,3.52
2019-02-11T00:15:53.036Z,3.50
2019-02-11T00:16:52.976Z,3.52
2019-02-11T00:17:52.963Z,3.52
2019-02-11T00:18:52.975Z,3.55
2019-02-11T00:19:52.943Z,3.51
2019-02-11T00:20:52.932Z,3.54
2019-02-11T00:21:52.947Z,3.58
2019-02-11T00:22:52.914Z,3.50
2019-02-11T00:23:52.930Z,3.57
2019-02-11T00:24:52.891Z,3.51
2019-02-11T00:25:52.876Z,3.47
2019-02-11T00:26:52.881Z,3.51
2019-02-11T00:27:52.849Z,3.58
2019-02-11T00:28:52.848Z,3.51
2019-02-11T00:29:52.839Z,3.55
2019-02-11T00:30:52.827Z,3.61
2019-02-11T00:31:52.806Z,3.55
2019-02-11T00:32:52.846Z,3.45
2019-02-11T00:33:52.794Z,3.58
2019-02-11T00:34:52.796Z,3.60
2019-02-11T00:35:52.762Z,3.54
2019-02-11T00:36:52.775Z,3.50
2019-02-11T00:37:52.765Z,3.48
2019-02-11T00:38:52.727Z,3.54
2019-02-11T00:39:52.762Z,3.60
2019-02-11T00:40:52.714Z,3.50
2019-02-11T00:41:52.715Z,3.50
2019-02-11T00:42:52.680Z,3.48
2019-02-11T00:43:52.700Z,3.45
2019-02-11T00:44:52.666Z,3.48
2019-02-11T00:45:52.673Z,3.43
2019-02-11T00:46:52.706Z,3.35
2019-02-11T00:47:52.629Z,3.39
2019-02-11T00:48:52.626Z,3.47
2019-02-11T00:49:52.611Z,3.45
2019-02-11T00:50:52.612Z,3.48
2019-02-11T00:51:52.641Z,3.48
2019-02-11T00:52:52.586Z,3.48
2019-02-11T00:53:52.558Z,3.45
2019-02-11T00:54:52.571Z,3.45
2019-02-11T00:55:52.547Z,3.50
2019-02-11T00:56:52.558Z,3.50
2019-02-11T00:57:52.517Z,3.55
2019-02-11T00:58:52.511Z,3.45
2019-02-11T00:59:52.568Z,3.51
2019-02-11T01:00:52.498Z,3.51
2019-02-11T01:01:52.497Z,3.51
2019-02-11T01:02:52.510Z,3.50
2019-02-11T01:03:52.455Z,3.52
2019-02-11T01:04:52.451Z,3.55
2019-02-11T01:05:52.426Z,3.60
2019-02-11T01:06:52.432Z,3.51
2019-02-11T01:07:52.417Z,3.55
2019-02-11T01:08:52.401Z,3.52
2019-02-11T01:09:52.383Z,3.60
2019-02-11T01:10:52.393Z,3.50
2019-02-11T01:11:52.372Z,3.47
2019-02-11T01:12:52.366Z,3.60
2019-02-11T01:13:52.344Z,3.51
2019-02-11T01:14:52.326Z,3.55
2019-02-11T01:15:52.332Z,3.55
2019-02-11T01:16:52.326Z,3.51
2019-02-11T01:17:52.292Z,3.47
2019-02-11T01:18:52.288Z,3.47
2019-02-11T01:19:52.279Z,3.54
2019-02-11T01:20:52.285Z,3.50
2019-02-11T01:21:52.292Z,3.60
2019-02-11T01:22:52.247Z,3.51
2019-02-11T01:23:52.241Z,3.52
2019-02-11T01:24:52.215Z,3.60
2019-02-11T01:25:52.286Z,3.47
2019-02-11T01:26:52.205Z,3.60
2019-02-11T01:27:52.188Z,3.52
2019-02-11T01:28:52.209Z,3.48
2019-02-11T01:29:52.184Z,3.48
2019-02-11T01:30:52.184Z,3.48
2019-02-11T01:31:52.153Z,3.54
2019-02-11T01:32:52.148Z,3.47
2019-02-11T01:33:52.119Z,3.54
2019-02-11T01:34:52.120Z,3.45
2019-02-11T01:35:52.104Z,3.48
2019-02-11T01:36:52.095Z,3.48
2019-02-11T01:37:52.071Z,3.35
2019-02-11T01:38:52.062Z,3.36
2019-02-11T01:39:52.066Z,3.40
2019-02-11T01:40:52.070Z,3.43
2019-02-11T01:41:52.066Z,3.42
2019-02-11T01:42:52.016Z,3.47
2019-02-11T01:43:52.013Z,3.31
2019-02-11T01:44:52.006Z,3.28
2019-02-11T01:45:51.987Z,3.28
2019-02-11T01:46:51.970Z,3.31
2019-02-11T01:47:51.959Z,3.18
2019-02-11T01:48:52.000Z,3.20
2019-02-11T01:49:51.940Z,3.24
2019-02-11T01:50:51.940Z,3.24
2019-02-11T01:51:51.947Z,3.28
2019-02-11T01:52:51.919Z,3.31
2019-02-11T01:53:51.905Z,3.24
2019-02-11T01:54:51.894Z,3.24
2019-02-11T01:55:51.889Z,3.29
2019-02-11T01:56:51.858Z,3.35
2019-02-11T01:57:51.860Z,3.43
2019-02-11T01:58:51.838Z,3.47
2019-02-11T01:59:51.826Z,3.45
2019-02-11T02:00:51.901Z,3.42
2019-02-11T02:01:51.813Z,3.36
2019-02-11T02:02:51.793Z,3.36
2019-02-11T02:03:51.784Z,3.35
2019-02-11T02:04:51.788Z,3.39
2019-02-11T02:05:51.783Z,3.42
2019-02-11T02:06:51.753Z,3.36
2019-02-11T02:07:51.755Z,3.31
2019-02-11T02:08:51.748Z,3.28
2019-02-11T02:09:51.738Z,3.39
2019-02-11T02:10:51.706Z,3.28
2019-02-11T02:11:51.703Z,3.18
2019-02-11T02:12:51.681Z,3.26
2019-02-11T02:13:51.671Z,3.17
2019-02-11T02:14:51.680Z,3.24
2019-02-11T02:15:51.655Z,3.18
2019-02-11T02:16:51.658Z,3.18
2019-02-11T02:17:51.649Z,3.15
2019-02-11T02:18:51.616Z,3.20
2019-02-11T02:19:51.610Z,3.20
2019-02-11T02:20:51.614Z,3.20
2019-02-11T02:21:51.586Z,3.20
2019-02-11T02:22:51.574Z,3.11
2019-02-11T02:23:51.556Z,3.20
2019-02-11T02:24:51.558Z,3.17
2019-02-11T02:25:51.538Z,3.15
2019-02-11T02:26:51.518Z,3.21
2019-02-11T02:27:51.548Z,3.18
2019-02-11T02:28:51.535Z,3.18
2019-02-11T02:29:51.514Z,3.26
2019-02-11T02:30:51.487Z,3.21
2019-02-11T02:31:51.480Z,3.26
2019-02-11T02:32:51.503Z,3.24
2019-02-11T02:33:51.455Z,3.20
2019-02-11T02:34:51.434Z,3.20
2019-02-11T02:35:51.458Z,3.20
2019-02-11T02:36:51.421Z,3.21
2019-02-11T02:37:51.404Z,3.20
2019-02-11T02:38:51.396Z,3.17
2019-02-11T02:39:51.398Z,3.17
2019-02-11T02:40:51.378Z,3.11
2019-02-11T02:41:51.352Z,3.14
2019-02-11T02:42:51.366Z,3.11
2019-02-11T02:43:55.457Z,3.10
2019-02-11T02:44:51.342Z,3.17
2019-02-11T02:45:51.332Z,3.05
2019-02-11T02:46:51.308Z,3.15
2019-02-11T02:47:51.299Z,3.03
2019-02-11T02:48:51.316Z,3.10
2019-02-11T02:49:51.280Z,3.17
2019-02-11T02:50:51.267Z,3.15
2019-02-11T02:51:51.251Z,3.11
2019-02-11T02:52:51.233Z,3.13
2019-02-11T02:53:51.228Z,3.08
2019-02-11T02:54:51.247Z,3.18
2019-02-11T02:55:51.203Z,3.05
2019-02-11T02:56:51.245Z,3.15
2019-02-11T02:57:51.181Z,3.10
2019-02-11T02:58:51.187Z,3.05
2019-02-11T02:59:51.174Z,2.93
2019-02-11T03:00:51.153Z,2.96
2019-02-11T03:01:51.145Z,3.08
2019-02-11T03:02:51.131Z,2.95
2019-02-11T03:03:51.112Z,2.92
2019-02-11T03:04:51.106Z,2.95
2019-02-11T03:05:53.053Z,2.92
2019-02-11T03:06:51.137Z,2.93
2019-02-11T03:07:51.067Z,2.87
2019-02-11T03:08:51.069Z,2.84
2019-02-11T03:09:51.060Z,2.92
2019-02-11T03:10:51.042Z,2.82
2019-02-11T03:11:51.033Z,2.84
2019-02-11T03:12:51.025Z,2.72
2019-02-11T03:13:50.999Z,2.75
2019-02-11T03:14:50.988Z,2.66
2019-02-11T03:15:51.037Z,2.67
2019-02-11T03:16:50.974Z,2.71
2019-02-11T03:17:50.961Z,2.69
2019-02-11T03:18:50.963Z,2.66
2019-02-11T03:19:50.961Z,2.78
2019-02-11T03:20:50.936Z,2.81
2019-02-11T03:21:50.937Z,2.81
2019-02-11T03:22:50.901Z,2.81
2019-02-11T03:23:50.898Z,2.89
2019-02-11T03:24:50.905Z,2.74
2019-02-11T03:25:50.906Z,2.87
2019-02-11T03:26:50.874Z,2.89
2019-02-11T03:27:50.859Z,2.90
2019-02-11T03:28:50.831Z,2.97
2019-02-11T03:29:50.824Z,2.96
2019-02-11T03:30:50.876Z,2.93
2019-02-11T03:31:50.818Z,2.89
2019-02-11T03:32:50.813Z,2.90
2019-02-11T03:33:50.793Z,2.89
2019-02-11T03:34:50.825Z,2.92
2019-02-11T03:35:50.785Z,2.82
2019-02-11T03:36:50.752Z,2.82
2019-02-11T03:37:50.762Z,2.81
2019-02-11T03:38:50.736Z,2.74
2019-02-11T03:39:50.728Z,2.74
2019-02-11T03:40:50.714Z,2.77
2019-02-11T03:41:50.685Z,2.72
2019-02-11T03:42:50.694Z,2.63
2019-02-11T03:43:50.685Z,2.64
2019-02-11T03:44:50.705Z,2.66
2019-02-11T03:45:50.672Z,2.69
2019-02-11T03:46:50.640Z,2.74
2019-02-11T03:47:50.626Z,2.71
2019-02-11T03:48:50.623Z,2.60
2019-02-11T03:49:50.598Z,2.59
2019-02-11T03:50:50.621Z,2.60
2019-02-11T03:51:50.607Z,2.61
2019-02-11T03:52:50.579Z,2.61
2019-02-11T03:53:50.582Z,2.56
2019-02-11T03:54:50.546Z,2.60
2019-02-11T03:55:50.535Z,2.59
2019-02-11T03:56:50.523Z,2.54
2019-02-11T03:57:50.519Z,2.52
2019-02-11T03:58:50.510Z,2.56
2019-02-11T03:59:50.498Z,2.56
2019-02-11T04:00:50.509Z,2.57
2019-02-11T04:01:50.468Z,2.69
2019-02-11T04:02:50.467Z,2.59
2019-02-11T04:03:50.465Z,2.66
2019-02-11T04:04:50.465Z,2.66
2019-02-11T04:05:50.417Z,2.66
2019-02-11T04:06:50.437Z,2.69
2019-02-11T04:07:50.430Z,2.61
2019-02-11T04:08:50.388Z,2.74
2019-02-11T04:09:50.390Z,2.72
2019-02-11T04:10:50.400Z,2.71
2019-02-11T04:11:50.357Z,2.78
2019-02-11T04:12:50.357Z,2.69
2019-02-11T04:13:50.337Z,2.77
2019-02-11T04:14:50.331Z,2.81
2019-02-11T04:15:50.345Z,2.85
2019-02-11T04:16:50.303Z,2.87
2019-02-11T04:17:50.292Z,2.79
2019-02-11T04:18:50.298Z,2.87
2019-02-11T04:19:50.271Z,2.82
2019-02-11T04:20:50.288Z,2.77
2019-02-11T04:21:50.242Z,2.77
2019-02-11T04:22:50.244Z,2.74
2019-02-11T04:23:50.251Z,2.81
2019-02-11T04:24:50.209Z,2.72
2019-02-11T04:25:50.204Z,2.71
2019-02-11T04:26:50.185Z,2.79
2019-02-11T04:27:50.184Z,2.74
2019-02-11T04:28:50.171Z,2.77
2019-02-11T04:29:50.157Z,2.71
2019-02-11T04:30:50.159Z,2.72
2019-02-11T04:31:50.172Z,2.72
2019-02-11T04:32:50.152Z,2.71
2019-02-11T04:33:50.133Z,2.72
2019-02-11T04:34:50.112Z,2.69
2019-02-11T04:35:50.084Z,2.72
2019-02-11T04:36:50.085Z,2.74
2019-02-11T04:37:50.066Z,2.78
2019-02-11T04:38:50.095Z,2.85
2019-02-11T04:39:50.060Z,2.78
2019-02-11T04:40:50.036Z,2.74
2019-02-11T04:41:50.021Z,2.75
2019-02-11T04:42:50.036Z,2.78
2019-02-11T04:43:50.023Z,2.74
2019-02-11T04:44:50.004Z,2.82
2019-02-11T04:45:49.982Z,2.78
2019-02-11T04:46:49.984Z,2.71
2019-02-11T04:47:50.053Z,2.71
2019-02-11T04:48:49.972Z,2.66
2019-02-11T04:49:49.945Z,2.60
2019-02-11T04:50:49.925Z,2.71
2019-02-11T04:51:49.944Z,2.67
2019-02-11T04:52:49.903Z,2.67
2019-02-11T04:53:49.901Z,2.63
2019-02-11T04:54:49.888Z,2.63
2019-02-11T04:55:49.912Z,2.54
2019-02-11T04:56:49.934Z,2.61
2019-02-11T04:57:49.864Z,2.42
2019-02-11T04:58:49.859Z,2.56
2019-02-11T04:59:49.843Z,2.53
2019-02-11T05:00:49.815Z,2.46
2019-02-11T05:01:49.839Z,2.48
2019-02-11T05:02:49.786Z,2.42
2019-02-11T05:03:49.847Z,2.46
2019-02-11T05:04:49.801Z,2.41
2019-02-11T05:05:49.778Z,2.28
2019-02-11T05:06:49.769Z,2.41
2019-02-11T05:07:49.733Z,2.45
2019-02-11T05:08:49.752Z,2.35
2019-02-11T05:09:49.744Z,2.34
2019-02-11T05:10:49.703Z,2.25
2019-02-11T05:11:49.808Z,2.31
2019-02-11T05:12:49.708Z,2.25
2019-02-11T05:13:49.690Z,2.23
2019-02-11T05:14:49.696Z,2.25
2019-02-11T05:15:49.656Z,2.27
2019-02-11T05:16:49.674Z,2.21
2019-02-11T05:17:49.655Z,2.17
2019-02-11T05:18:49.612Z,2.12
2019-02-11T05:19:49.606Z,2.18
2019-02-11T05:20:49.585Z,2.14
2019-02-11T05:21:49.575Z,2.10
2019-02-11T05:22:49.607Z,1.99
2019-02-11T05:23:49.552Z,1.99
2019-02-11T05:24:49.543Z,2.07
2019-02-11T05:25:49.529Z,2.06
2019-02-11T05:26:49.518Z,2.00
2019-02-11T05:27:49.527Z,2.03
2019-02-11T05:28:49.506Z,1.99
2019-02-11T05:29:49.515Z,1.83
2019-02-11T05:30:49.477Z,1.86
2019-02-11T05:31:49.467Z,1.93
2019-02-11T05:32:49.452Z,1.91
2019-02-11T05:33:49.459Z,1.91
2019-02-11T05:34:49.449Z,1.90
2019-02-11T05:35:49.447Z,1.93
2019-02-11T05:36:49.409Z,1.88
2019-02-11T05:37:49.401Z,1.86
2019-02-11T05:38:49.386Z,1.84
2019-02-11T05:39:49.389Z,1.84
2019-02-11T05:40:49.368Z,1.77
2019-02-11T05:41:49.360Z,1.83
2019-02-11T05:42:49.360Z,1.80
2019-02-11T05:43:49.336Z,1.81
2019-02-11T05:44:53.885Z,1.83
2019-02-11T05:45:49.312Z,1.76
2019-02-11T05:46:49.302Z,1.79
2019-02-11T05:47:49.284Z,1.77
2019-02-11T05:48:49.277Z,1.83
2019-02-11T05:49:49.307Z,1.76
2019-02-11T05:50:49.273Z,1.79
2019-02-11T05:51:49.240Z,1.72
2019-02-11T05:52:49.254Z,1.79
2019-02-11T05:53:49.221Z,1.76
2019-02-11T05:54:49.207Z,1.80
2019-02-11T05:55:49.208Z,1.69
2019-02-11T05:56:49.187Z,1.70
2019-02-11T05:57:49.174Z,1.80
2019-02-11T05:58:49.175Z,1.77
2019-02-11T05:59:49.161Z,1.72
2019-02-11T06:00:49.156Z,1.76
2019-02-11T06:01:49.131Z,1.73
2019-02-11T06:02:49.120Z,1.81
2019-02-11T06:03:49.118Z,1.81
2019-02-11T06:04:49.103Z,1.70
2019-02-11T06:05:49.101Z,1.69
2019-02-11T06:06:49.100Z,1.73
2019-02-11T06:07:49.065Z,1.80
2019-02-11T06:08:49.057Z,1.72
2019-02-11T06:09:49.904Z,1.79
2019-02-11T06:10:49.033Z,1.80
2019-02-11T06:11:49.050Z,1.66
2019-02-11T06:12:49.019Z,1.81
2019-02-11T06:13:48.996Z,1.68
2019-02-11T06:14:48.996Z,1.72
2019-02-11T06:15:48.981Z,1.76
2019-02-11T06:16:48.996Z,1.69
2019-02-11T06:17:48.956Z,1.72
2019-02-11T06:18:48.944Z,1.73
2019-02-11T06:19:48.945Z,1.72
2019-02-11T06:20:48.952Z,1.66
2019-02-11T06:21:48.951Z,1.66
2019-02-11T06:22:48.942Z,1.69
2019-02-11T06:23:48.907Z,1.66
2019-02-11T06:24:48.907Z,1.68
2019-02-11T06:25:48.893Z,1.69
2019-02-11T06:26:48.886Z,1.60
2019-02-11T06:27:48.878Z,1.66
2019-02-11T06:28:48.834Z,1.70
2019-02-11T06:29:48.842Z,1.68
2019-02-11T06:30:48.818Z,1.68
2019-02-11T06:31:48.803Z,1.59
2019-02-11T06:32:48.792Z,1.59
2019-02-11T06:33:48.787Z,1.58
2019-02-11T06:34:48.780Z,1.62
2019-02-11T06:35:48.771Z,1.50
2019-02-11T06:36:48.757Z,1.47
2019-02-11T06:37:48.740Z,1.47
2019-02-11T06:38:48.739Z,1.37
2019-02-11T06:39:48.713Z,1.40
2019-02-11T06:40:48.714Z,1.47
2019-02-11T06:41:48.688Z,1.42
2019-02-11T06:42:48.676Z,1.50
2019-02-11T06:43:48.667Z,1.40
2019-02-11T06:44:48.659Z,1.33
2019-02-11T06:45:48.651Z,1.34
2019-02-11T06:46:48.634Z,1.45
2019-02-11T06:47:48.628Z,1.40
2019-02-11T06:48:48.613Z,1.33
2019-02-11T06:49:48.621Z,1.36
2019-02-11T06:50:48.604Z,1.36
2019-02-11T06:51:48.584Z,1.30
2019-02-11T06:52:48.577Z,1.27
2019-02-11T06:53:48.584Z,1.26
2019-02-11T06:54:48.559Z,1.30
2019-02-11T06:55:48.549Z,1.15
2019-02-11T06:56:48.521Z,1.14
2019-02-11T06:57:48.512Z,1.20
2019-02-11T06:58:48.519Z,1.20
2019-02-11T06:59:48.499Z,1.15
2019-02-11T07:00:48.500Z,1.22
2019-02-11T07:01:48.521Z,1.16
2019-02-11T07:02:48.470Z,1.14
2019-02-11T07:03:48.471Z,1.15
2019-02-11T07:04:48.455Z,1.15
2019-02-11T07:05:48.426Z,1.14
2019-02-11T07:06:48.413Z,1.14
2019-02-11T07:07:48.412Z,1.20
2019-02-11T07:08:48.390Z,1.16
2019-02-11T07:09:48.420Z,1.06
2019-02-11T07:10:55.465Z,1.08
2019-02-11T07:11:49.437Z,1.00
2019-02-11T07:12:48.390Z,1.04
2019-02-11T07:13:48.351Z,1.04
2019-02-11T07:14:48.332Z,1.05
2019-02-11T07:15:48.389Z,1.05
2019-02-11T07:16:48.318Z,0.96
2019-02-11T07:17:48.298Z,0.94
2019-02-11T07:18:48.288Z,0.94
2019-02-11T07:19:48.287Z,1.02
2019-02-11T07:20:48.273Z,0.93
2019-02-11T07:21:48.271Z,0.93
2019-02-11T07:22:48.257Z,0.96
2019-02-11T07:23:48.243Z,0.94
2019-02-11T07:24:48.212Z,0.90
2019-02-11T07:25:48.202Z,1.00
2019-02-11T07:26:48.219Z,0.96
2019-02-11T07:27:48.177Z,0.91
2019-02-11T07:28:48.206Z,1.04
2019-02-11T07:29:48.177Z,0.96
2019-02-11T07:30:48.155Z,0.90
2019-02-11T07:31:48.144Z,0.94
2019-02-11T07:32:48.163Z,0.98
2019-02-11T07:33:48.131Z,0.93
2019-02-11T07:34:48.101Z,0.97
2019-02-11T07:35:48.092Z,0.88
2019-02-11T07:36:48.088Z,0.88
2019-02-11T07:37:48.098Z,0.98
2019-02-11T07:38:48.063Z,0.84
2019-02-11T07:39:48.046Z,0.86
2019-02-11T07:40:48.038Z,0.88
2019-02-11T07:41:48.023Z,0.86
2019-02-11T07:42:48.027Z,0.87
2019-02-11T07:43:48.017Z,0.90
2019-02-11T07:44:47.990Z,0.91
2019-02-11T07:45:47.982Z,0.88
2019-02-11T07:46:47.968Z,0.94
2019-02-11T07:47:47.963Z,0.83
2019-02-11T07:48:47.949Z,0.90
2019-02-11T07:49:47.940Z,0.94
2019-02-11T07:50:47.930Z,0.80
2019-02-11T07:51:47.939Z,0.91
2019-02-11T07:52:47.905Z,0.90
2019-02-11T07:53:47.896Z,0.87
2019-02-11T07:54:47.926Z,0.88
2019-02-11T07:55:47.872Z,0.87
2019-02-11T07:56:47.866Z,0.93
2019-02-11T07:57:47.850Z,0.91
2019-02-11T07:58:47.841Z,0.84
2019-02-11T07:59:47.835Z,0.90
2019-02-11T08:00:47.827Z,0.91
2019-02-11T08:01:47.824Z,0.93
2019-02-11T08:02:47.798Z,0.91
2019-02-11T08:03:47.806Z,0.90
2019-02-11T08:04:47.783Z,0.90
2019-02-11T08:05:47.764Z,0.93
2019-02-11T08:06:47.773Z,0.97
2019-02-11T08:07:47.744Z,0.90
2019-02-11T08:08:47.768Z,0.91
2019-02-11T08:09:47.716Z,0.90
2019-02-11T08:10:47.723Z,0.96
2019-02-11T08:11:47.702Z,0.96
2019-02-11T08:12:47.696Z,0.91
2019-02-11T08:13:47.676Z,1.02
2019-02-11T08:14:47.666Z,1.00
2019-02-11T08:15:47.649Z,1.05
2019-02-11T08:16:47.644Z,0.94
2019-02-11T08:17:47.628Z,1.11
2019-02-11T08:18:47.620Z,1.09
2019-02-11T08:19:47.609Z,1.04
2019-02-11T08:20:47.621Z,0.97
2019-02-11T08:21:47.584Z,1.09
2019-02-11T08:22:47.572Z,1.04
2019-02-11T08:23:47.569Z,1.04
2019-02-11T08:24:47.557Z,1.04
2019-02-11T08:25:47.595Z,1.05
2019-02-11T08:26:47.543Z,1.02
2019-02-11T08:27:47.518Z,1.00
2019-02-11T08:28:47.510Z,1.06
2019-02-11T08:29:47.509Z,1.12
2019-02-11T08:30:47.505Z,1.15
2019-02-11T08:31:47.502Z,1.15
2019-02-11T08:32:47.495Z,1.16
2019-02-11T08:33:47.495Z,1.16
2019-02-11T08:34:47.437Z,1.20
2019-02-11T08:35:47.437Z,1.16
2019-02-11T08:36:47.431Z,1.12
2019-02-11T08:37:47.409Z,1.15
2019-02-11T08:38:47.414Z,1.22
2019-02-11T08:39:47.382Z,1.20
2019-02-11T08:40:47.372Z,1.15
2019-02-11T08:41:47.365Z,1.24
2019-02-11T08:42:47.358Z,1.26
2019-02-11T08:43:47.342Z,1.27
2019-02-11T08:44:47.337Z,1.36
2019-02-11T08:45:47.437Z,1.30
2019-02-11T08:46:47.306Z,1.33
2019-02-11T08:47:47.319Z,1.34
2019-02-11T08:48:47.283Z,1.30
2019-02-11T08:49:47.271Z,1.29
2019-02-11T08:50:47.287Z,1.32
2019-02-11T08:51:47.255Z,1.36
2019-02-11T08:52:47.247Z,1.32
2019-02-11T08:53:47.236Z,1.32
2019-02-11T08:54:47.224Z,1.34
2019-02-11T08:55:47.212Z,1.45
2019-02-11T08:56:47.202Z,1.50
2019-02-11T08:57:47.183Z,1.50
2019-02-11T08:58:47.217Z,1.47
2019-02-11T08:59:47.181Z,1.51
2019-02-11T09:00:47.150Z,1.40
2019-02-11T09:01:47.155Z,1.48
2019-02-11T09:02:47.144Z,1.41
2019-02-11T09:03:47.135Z,1.45
2019-02-11T09:04:47.138Z,1.51
2019-02-11T09:05:47.127Z,1.45
2019-02-11T09:06:47.095Z,1.40
2019-02-11T09:07:47.156Z,1.37
2019-02-11T09:08:47.075Z,1.40
2019-02-11T09:09:47.069Z,1.30
2019-02-11T09:10:47.046Z,1.30
2019-02-11T09:11:47.034Z,1.33
2019-02-11T09:12:47.023Z,1.34
2019-02-11T09:13:47.022Z,1.33
2019-02-11T09:14:47.017Z,1.32
2019-02-11T09:15:55.089Z,1.37
2019-02-11T09:16:48.039Z,1.29
2019-02-11T09:17:46.966Z,1.29
2019-02-11T09:18:46.950Z,1.29
2019-02-11T09:19:46.957Z,1.22
2019-02-11T09:20:46.967Z,1.29
2019-02-11T09:21:46.918Z,1.32
2019-02-11T09:22:46.907Z,1.20
2019-02-11T09:23:46.900Z,1.26
2019-02-11T09:24:46.884Z,1.16
2019-02-11T09:25:46.878Z,1.16
2019-02-11T09:26:46.887Z,1.22
2019-02-11T09:27:46.906Z,1.20
2019-02-11T09:28:46.875Z,1.16
2019-02-11T09:29:46.840Z,1.11
2019-02-11T09:30:46.824Z,1.15
2019-02-11T09:31:46.809Z,1.16
2019-02-11T09:32:46.807Z,1.18
2019-02-11T09:33:46.782Z,1.18
2019-02-11T09:34:46.782Z,1.20
2019-02-11T09:35:46.789Z,1.20
2019-02-11T09:36:46.753Z,1.18
2019-02-11T09:37:46.742Z,1.11
2019-02-11T09:38:46.729Z,1.16
2019-02-11T09:39:46.715Z,1.20
2019-02-11T09:40:46.735Z,1.15
2019-02-11T09:41:46.723Z,1.20
2019-02-11T09:42:46.713Z,1.27
2019-02-11T09:43:46.695Z,1.12
2019-02-11T09:44:46.660Z,1.24
2019-02-11T09:45:46.649Z,1.14
2019-02-11T09:46:46.655Z,1.18
2019-02-11T09:47:46.631Z,1.18
2019-02-11T09:48:46.656Z,1.18
2019-02-11T09:49:46.637Z,1.15
2019-02-11T09:50:47.444Z,1.29
2019-02-11T09:51:46.590Z,1.30
2019-02-11T09:52:46.576Z,1.26
2019-02-11T09:53:46.578Z,1.33
2019-02-11T09:54:46.583Z,1.34
2019-02-11T09:55:46.538Z,1.34
2019-02-11T09:56:46.555Z,1.33
2019-02-11T09:57:46.552Z,1.34
2019-02-11T09:58:46.522Z,1.32
2019-02-11T09:59:46.524Z,1.34
2019-02-11T10:00:46.486Z,1.51
2019-02-11T10:01:46.552Z,1.40
2019-02-11T10:02:46.488Z,1.36
2019-02-11T10:03:46.453Z,1.48
2019-02-11T10:04:46.451Z,1.47
2019-02-11T10:05:46.442Z,1.44
2019-02-11T10:06:46.417Z,1.48
2019-02-11T10:07:46.418Z,1.40
2019-02-11T10:08:46.395Z,1.33
2019-02-11T10:09:47.912Z,1.34
2019-02-11T10:10:46.398Z,1.32
2019-02-11T10:11:46.360Z,1.32
2019-02-11T10:12:46.447Z,1.36
2019-02-11T10:13:46.343Z,1.30
2019-02-11T10:14:46.327Z,1.36
2019-02-11T10:15:46.339Z,1.32
2019-02-11T10:16:46.326Z,1.33
2019-02-11T10:17:46.294Z,1.40
2019-02-11T10:18:46.288Z,1.30
2019-02-11T10:19:46.272Z,1.32
2019-02-11T10:20:46.268Z,1.41
2019-02-11T10:21:46.253Z,1.40
2019-02-11T10:22:46.243Z,1.36
2019-02-11T10:23:46.280Z,1.30
2019-02-11T10:24:46.217Z,1.27
2019-02-11T10:25:46.208Z,1.36
2019-02-11T10:26:47.170Z,1.37
2019-02-11T10:27:46.186Z,1.40
2019-02-11T10:28:46.172Z,1.40
2019-02-11T10:29:46.176Z,1.34
2019-02-11T10:30:46.168Z,1.34
2019-02-11T10:31:46.138Z,1.27
2019-02-11T10:32:46.146Z,1.34
2019-02-11T10:33:46.119Z,1.32
2019-02-11T10:34:46.138Z,1.33
2019-02-11T10:35:46.096Z,1.33
2019-02-11T10:36:46.088Z,1.41
2019-02-11T10:37:46.074Z,1.34
2019-02-11T10:38:46.061Z,1.48
2019-02-11T10:39:46.097Z,1.42
2019-02-11T10:40:46.072Z,1.45
2019-02-11T10:41:46.027Z,1.45
2019-02-11T10:42:46.035Z,1.42
2019-02-11T10:43:46.035Z,1.41
2019-02-11T10:44:45.994Z,1.45
2019-02-11T10:45:46.008Z,1.55
2019-02-11T10:46:45.977Z,1.55
2019-02-11T10:47:45.967Z,1.60
2019-02-11T10:48:45.950Z,1.59
2019-02-11T10:49:45.977Z,1.62
2019-02-11T10:50:45.946Z,1.65
2019-02-11T10:51:45.935Z,1.65
2019-02-11T10:52:45.929Z,1.70
2019-02-11T10:53:45.912Z,1.77
2019-02-11T10:54:45.896Z,1.79
2019-02-11T10:55:45.889Z,1.70
2019-02-11T10:56:45.881Z,1.84
2019-02-11T10:57:45.875Z,1.95
2019-02-11T10:58:45.858Z,1.91
2019-02-11T10:59:45.831Z,1.86
2019-02-11T11:00:45.880Z,1.81
2019-02-11T11:01:45.819Z,1.80
2019-02-11T11:02:45.820Z,2.03
2019-02-11T11:03:45.788Z,1.98
2019-02-11T11:04:45.810Z,1.95
2019-02-11T11:05:45.769Z,1.93
2019-02-11T11:06:45.787Z,2.07
2019-02-11T11:07:45.780Z,2.00
2019-02-11T11:08:45.735Z,2.09
2019-02-11T11:09:45.730Z,2.00
2019-02-11T11:10:45.727Z,2.06
2019-02-11T11:11:45.726Z,2.16
2019-02-11T11:12:45.711Z,2.16
2019-02-11T11:13:45.688Z,2.14
2019-02-11T11:14:45.683Z,2.17
2019-02-11T11:15:45.654Z,2.17
2019-02-11T11:16:45.655Z,2.18
2019-02-11T11:17:45.637Z,2.18
2019-02-11T11:18:45.628Z,2.25
2019-02-11T11:19:45.620Z,2.23
2019-02-11T11:20:45.604Z,2.25
2019-02-11T11:21:45.598Z,2.25
2019-02-11T11:22:45.588Z,2.28
2019-02-11T11:23:45.589Z,2.27
2019-02-11T11:24:45.556Z,2.28
2019-02-11T11:25:45.588Z,2.36
2019-02-11T11:26:45.550Z,2.27
2019-02-11T11:27:45.533Z,2.30
2019-02-11T11:28:45.535Z,2.34
2019-02-11T11:29:45.514Z,2.30
2019-02-11T11:30:45.505Z,2.30
2019-02-11T11:31:45.487Z,2.27
2019-02-11T11:32:45.514Z,2.36
2019-02-11T11:33:45.462Z,2.25
2019-02-11T11:34:45.461Z,2.30
2019-02-11T11:35:45.435Z,2.34
2019-02-11T11:36:45.418Z,2.30
2019-02-11T11:37:45.429Z,2.28
2019-02-11T11:38:45.445Z,2.27
2019-02-11T11:39:45.410Z,2.30
2019-02-11T11:40:45.390Z,2.28
2019-02-11T11:41:45.406Z,2.28
2019-02-11T11:42:45.357Z,2.27
2019-02-11T11:43:45.380Z,2.30
2019-02-11T11:44:45.363Z,2.23
2019-02-11T11:45:45.337Z,2.21
2019-02-11T11:46:47.106Z,2.35
2019-02-11T11:47:45.332Z,2.34
2019-02-11T11:48:45.306Z,2.36
2019-02-11T11:49:45.299Z,2.31
2019-02-11T11:50:45.266Z,2.35
2019-02-11T11:51:45.261Z,2.30
2019-02-11T11:52:45.273Z,2.27
2019-02-11T11:53:45.247Z,2.36
2019-02-11T11:54:45.273Z,2.42
2019-02-11T11:55:45.215Z,2.34
2019-02-11T11:56:45.220Z,2.41
2019-02-11T11:57:45.199Z,2.35
2019-02-11T11:58:45.192Z,2.35
2019-02-11T11:59:45.179Z,2.39
2019-02-11T12:00:45.161Z,2.36
2019-02-11T12:01:45.207Z,2.35
2019-02-11T12:03:00.778Z,2.27
2019-02-11T12:03:46.127Z,2.24
2019-02-11T12:04:45.154Z,2.31
2019-02-11T12:05:45.157Z,2.38
2019-02-11T12:06:45.110Z,2.36
2019-02-11T12:07:45.080Z,2.27
2019-02-11T12:08:45.074Z,2.27
2019-02-11T12:09:45.110Z,2.30
2019-02-11T12:10:45.052Z,2.25
2019-02-11T12:11:45.042Z,2.20
2019-02-11T12:12:45.056Z,2.25
2019-02-11T12:13:45.036Z,2.18
2019-02-11T12:14:45.044Z,2.20
2019-02-11T12:15:45.033Z,2.20
2019-02-11T12:16:56.186Z,2.14
2019-02-11T12:17:46.091Z,2.14
2019-02-11T12:18:45.011Z,2.09
2019-02-11T12:19:45.054Z,2.14
2019-02-11T12:20:45.046Z,2.07
2019-02-11T12:21:44.957Z,2.05
2019-02-11T12:22:44.996Z,2.14
2019-02-11T12:23:44.942Z,2.10
2019-02-11T12:24:44.964Z,2.23
2019-02-11T12:25:44.876Z,2.18
2019-02-11T12:26:44.873Z,2.09
2019-02-11T12:27:44.866Z,2.20
2019-02-11T12:28:44.866Z,2.18
2019-02-11T12:29:44.872Z,2.17
2019-02-11T12:30:44.834Z,2.16
2019-02-11T12:31:44.827Z,2.07
2019-02-11T12:32:44.795Z,2.20
2019-02-11T12:33:44.790Z,2.17
2019-02-11T12:34:44.820Z,2.23
2019-02-11T12:35:44.763Z,2.27
2019-02-11T12:36:44.782Z,2.27
2019-02-11T12:37:44.738Z,2.28
2019-02-11T12:38:44.739Z,2.27
2019-02-11T12:39:44.765Z,2.25
2019-02-11T12:40:44.704Z,2.24
2019-02-11T12:41:44.707Z,2.27
2019-02-11T12:42:44.690Z,2.34
2019-02-11T12:43:44.682Z,2.36
2019-02-11T12:44:44.679Z,2.36
2019-02-11T12:45:44.663Z,2.31
2019-02-11T12:46:44.653Z,2.30
2019-02-11T12:47:44.632Z,2.31
2019-02-11T12:48:44.621Z,2.35
2019-02-11T12:49:44.616Z,2.42
2019-02-11T12:50:44.608Z,2.41
2019-02-11T12:51:44.589Z,2.42
2019-02-11T12:52:44.600Z,2.48
2019-02-11T12:53:44.562Z,2.53
2019-02-11T12:54:44.817Z,2.49
2019-02-11T12:55:44.553Z,2.64
2019-02-11T12:56:44.546Z,2.60
2019-02-11T12:57:44.529Z,2.59
2019-02-11T12:58:44.585Z,2.72
2019-02-11T12:59:44.490Z,2.61
2019-02-11T13:00:44.487Z,2.64
2019-02-11T13:01:44.480Z,2.72
2019-02-11T13:02:44.482Z,2.63
2019-02-11T13:03:44.471Z,2.59
2019-02-11T13:04:44.521Z,2.69
2019-02-11T13:05:46.353Z,2.59
2019-02-11T13:06:44.437Z,2.66
2019-02-11T13:07:44.411Z,2.66
2019-02-11T13:08:44.493Z,2.69
2019-02-11T13:09:44.390Z,2.64
2019-02-11T13:10:44.393Z,2.66
2019-02-11T13:11:44.385Z,2.60
2019-02-11T13:12:44.416Z,2.57
2019-02-11T13:13:44.395Z,2.66
2019-02-11T13:14:44.329Z,2.75
2019-02-11T13:15:59.886Z,2.77
2019-02-11T13:16:45.421Z,2.79
2019-02-11T13:17:44.365Z,2.87
2019-02-11T13:18:44.356Z,2.77